createdAt,value
2017-11-30T00:01:08.741Z,56.73
2017-11-30T00:03:35.311Z,54.57
2017-11-30T00:06:01.890Z,61.47
2017-11-30T00:08:29.969Z,54.40
2017-11-30T00:10:57.591Z,57.73
2017-11-30T00:13:26.769Z,59.60
2017-11-30T00:15:53.540Z,59.80
2017-11-30T00:18:20.159Z,52.13
2017-11-30T00:20:46.587Z,62.37
2017-11-30T00:23:12.973Z,56.30
2017-11-30T00:25:39.526Z,60.13
2017-11-30T00:28:06.895Z,57.40
2017-11-30T00:30:33.268Z,68.70
2017-11-30T00:33:00.038Z,60.13
2017-11-30T00:35:27.527Z,56.03
2017-11-30T00:37:53.999Z,58.27
2017-11-30T00:40:20.714Z,67.37
2017-11-30T00:42:59.255Z,69.80
2017-11-30T00:45:25.827Z,75.40
2017-11-30T00:47:52.254Z,64.03
2017-11-30T00:50:18.695Z,61.47
2017-11-30T00:52:45.228Z,69.30
2017-11-30T00:55:11.687Z,60.03
2017-11-30T00:57:38.088Z,60.07
2017-11-30T01:00:04.806Z,58.33
2017-11-30T01:02:31.291Z,69.93
2017-11-30T01:04:57.747Z,67.27
2017-11-30T01:07:25.019Z,68.80
2017-11-30T01:09:52.140Z,64.60
2017-11-30T01:12:18.589Z,66.90
2017-11-30T01:14:45.022Z,72.90
2017-11-30T01:17:11.437Z,61.97
2017-11-30T01:19:38.621Z,64.17
2017-11-30T01:22:05.143Z,59.83
2017-11-30T01:24:31.486Z,62.73
2017-11-30T01:26:58.594Z,63.37
2017-11-30T01:29:25.934Z,60.20
2017-11-30T01:31:52.530Z,60.47
2017-11-30T01:34:18.969Z,67.50
2017-11-30T01:36:45.454Z,62.37
2017-11-30T01:39:11.835Z,60.53
2017-11-30T01:41:38.948Z,76.10
2017-11-30T01:44:06.678Z,64.97
2017-11-30T01:46:33.424Z,63.10
2017-11-30T01:49:00.085Z,65.80
2017-11-30T01:51:26.777Z,63.67
2017-11-30T01:53:53.864Z,57.90
2017-11-30T01:56:20.424Z,72.53
2017-11-30T01:58:46.876Z,69.87
2017-11-30T02:01:13.343Z,71.30
2017-11-30T02:03:39.838Z,68.70
2017-11-30T02:06:07.215Z,62.60
2017-11-30T02:08:33.640Z,63.53
2017-11-30T02:11:00.860Z,64.83
2017-11-30T02:13:27.394Z,54.63
2017-11-30T02:15:53.822Z,75.57
2017-11-30T02:18:20.189Z,57.67
2017-11-30T02:20:46.684Z,52.10
2017-11-30T02:23:13.122Z,60.70
2017-11-30T02:25:39.552Z,62.37
2017-11-30T02:28:06.232Z,56.13
2017-11-30T02:30:33.528Z,54.67
2017-11-30T02:33:00.248Z,54.20
2017-11-30T02:35:27.476Z,61.17
2017-11-30T02:37:53.966Z,51.63
2017-11-30T02:40:20.418Z,56.43
2017-11-30T02:42:47.417Z,60.60
2017-11-30T02:45:15.080Z,61.93
2017-11-30T02:47:41.610Z,64.20
2017-11-30T02:50:08.160Z,54.10
2017-11-30T02:52:34.620Z,58.53
2017-11-30T02:55:01.255Z,65.87
2017-11-30T02:57:27.828Z,61.57
2017-11-30T02:59:54.427Z,67.00
2017-11-30T03:02:21.098Z,58.50
2017-11-30T03:04:47.745Z,56.53
2017-11-30T03:07:15.100Z,60.77
2017-11-30T03:09:41.964Z,69.63
2017-11-30T03:12:08.557Z,69.27
2017-11-30T03:14:36.093Z,66.63
2017-11-30T03:17:02.898Z,70.97
2017-11-30T03:19:36.378Z,78.73
2017-11-30T03:22:02.829Z,67.00
2017-11-30T03:24:31.225Z,72.23
2017-11-30T03:27:13.747Z,66.70
2017-11-30T03:29:40.382Z,74.20
2017-11-30T03:32:08.597Z,65.27
2017-11-30T03:34:35.316Z,69.40
2017-11-30T03:37:01.890Z,74.90
2017-11-30T03:39:28.497Z,73.40
2017-11-30T03:41:55.011Z,70.90
2017-11-30T03:44:22.577Z,73.77
2017-11-30T03:46:49.218Z,68.03
2017-11-30T03:49:16.337Z,72.43
2017-11-30T03:51:42.842Z,68.40
2017-11-30T03:54:09.426Z,70.13
2017-11-30T03:56:36.279Z,63.47
2017-11-30T03:59:02.987Z,74.30
2017-11-30T04:01:29.525Z,71.43
2017-11-30T04:03:56.408Z,67.77
2017-11-30T04:06:23.742Z,68.90
2017-11-30T04:08:50.341Z,76.67
2017-11-30T04:11:17.364Z,66.60
2017-11-30T04:13:44.460Z,73.70
2017-11-30T04:16:11.199Z,76.43
2017-11-30T04:18:37.783Z,68.70
2017-11-30T04:21:05.024Z,63.43
2017-11-30T04:23:32.035Z,66.10
2017-11-30T04:25:59.064Z,74.23
2017-11-30T04:28:25.661Z,74.07
2017-11-30T04:30:52.332Z,73.33
2017-11-30T04:33:19.796Z,71.40
2017-11-30T04:35:46.716Z,74.20
2017-11-30T04:38:13.399Z,79.73
2017-11-30T04:40:39.938Z,76.80
2017-11-30T04:43:06.573Z,84.17
2017-11-30T04:45:34.874Z,87.07
2017-11-30T04:48:01.422Z,76.20
2017-11-30T04:50:29.111Z,98.53
2017-11-30T04:52:55.627Z,90.53
2017-11-30T04:55:22.498Z,84.83
2017-11-30T04:57:49.130Z,93.70
2017-11-30T05:00:15.767Z,73.23
2017-11-30T05:02:42.354Z,101.93
2017-11-30T05:05:08.852Z,97.37
2017-11-30T05:07:35.559Z,105.80
2017-11-30T05:10:07.203Z,102.23
2017-11-30T05:12:34.160Z,99.37
2017-11-30T05:15:00.829Z,102.47
2017-11-30T05:17:28.027Z,90.23
2017-11-30T05:19:55.311Z,97.20
2017-11-30T05:22:21.896Z,103.80
2017-11-30T05:24:48.399Z,104.37
2017-11-30T05:27:16.007Z,91.27
2017-11-30T05:29:43.322Z,125.40
2017-11-30T05:32:10.074Z,104.23
2017-11-30T05:34:37.535Z,99.13
2017-11-30T05:37:04.177Z,97.90
2017-11-30T05:39:30.875Z,102.67
2017-11-30T05:42:04.289Z,90.33
2017-11-30T05:44:30.861Z,96.03
2017-11-30T05:46:57.703Z,88.90
2017-11-30T05:49:25.779Z,82.00
2017-11-30T05:52:00.294Z,82.10
2017-11-30T05:54:26.938Z,78.80
2017-11-30T05:56:53.903Z,88.80
2017-11-30T05:59:20.714Z,111.37
2017-11-30T06:01:47.323Z,88.87
2017-11-30T06:04:14.775Z,96.30
2017-11-30T06:06:41.397Z,91.17
2017-11-30T06:09:07.910Z,81.77
2017-11-30T06:11:34.543Z,90.17
2017-11-30T06:14:01.565Z,82.20
2017-11-30T06:16:28.152Z,94.63
2017-11-30T06:18:54.803Z,92.40
2017-11-30T06:21:21.421Z,95.33
2017-11-30T06:23:48.692Z,89.40
2017-11-30T06:26:15.241Z,90.83
2017-11-30T06:28:41.774Z,111.33
2017-11-30T06:31:09.204Z,99.90
2017-11-30T06:33:36.546Z,102.57
2017-11-30T06:36:03.228Z,97.50
2017-11-30T06:38:30.196Z,92.23
2017-11-30T06:40:57.801Z,88.83
2017-11-30T06:43:24.748Z,92.60
2017-11-30T06:45:51.411Z,86.30
2017-11-30T06:48:18.111Z,100.07
2017-11-30T06:50:44.918Z,85.57
2017-11-30T06:53:11.602Z,80.77
2017-11-30T06:55:38.269Z,92.90
2017-11-30T06:58:04.901Z,87.03
2017-11-30T07:00:31.501Z,98.07
2017-11-30T07:02:58.084Z,91.63
2017-11-30T07:05:26.234Z,94.93
2017-11-30T07:07:52.771Z,87.50
2017-11-30T07:10:19.301Z,93.77
2017-11-30T07:12:46.896Z,99.77
2017-11-30T07:15:13.467Z,97.33
2017-11-30T07:17:40.186Z,98.20
2017-11-30T07:20:06.971Z,118.90
2017-11-30T07:22:33.524Z,94.40
2017-11-30T07:25:00.014Z,95.47
2017-11-30T07:27:26.513Z,92.70
2017-11-30T07:29:53.063Z,110.37
2017-11-30T07:32:19.529Z,100.57
2017-11-30T07:34:45.981Z,103.47
2017-11-30T07:37:12.486Z,96.47
2017-11-30T07:39:38.989Z,103.23
2017-11-30T07:42:05.551Z,102.43
2017-11-30T07:44:32.123Z,101.17
2017-11-30T07:46:58.560Z,106.00
2017-11-30T07:49:26.222Z,96.10
2017-11-30T07:51:52.912Z,108.73
2017-11-30T07:54:20.678Z,107.10
2017-11-30T07:56:47.473Z,92.83
2017-11-30T07:59:14.307Z,103.43
2017-11-30T08:01:40.864Z,101.53
2017-11-30T08:04:07.664Z,87.93
2017-11-30T08:06:34.248Z,84.47
2017-11-30T08:09:00.940Z,96.07
2017-11-30T08:11:27.680Z,76.87
2017-11-30T08:13:55.332Z,80.70
2017-11-30T08:16:22.744Z,82.43
2017-11-30T08:18:50.031Z,81.33
2017-11-30T08:21:16.789Z,73.80
2017-11-30T08:23:43.404Z,83.87
2017-11-30T08:26:10.080Z,95.20
2017-11-30T08:28:36.759Z,71.73
2017-11-30T08:31:03.431Z,81.17
2017-11-30T08:33:29.976Z,90.27
2017-11-30T08:35:56.489Z,79.00
2017-11-30T08:38:23.063Z,82.37
2017-11-30T08:40:49.894Z,72.20
2017-11-30T08:43:16.428Z,83.63
2017-11-30T08:45:42.987Z,78.70
2017-11-30T08:48:09.750Z,93.07
2017-11-30T08:50:36.379Z,80.20
2017-11-30T08:53:03.671Z,74.80
2017-11-30T08:55:30.632Z,84.50
2017-11-30T08:57:57.134Z,76.00
2017-11-30T09:00:23.826Z,83.80
2017-11-30T09:02:50.381Z,83.37
2017-11-30T09:05:16.942Z,69.80
2017-11-30T09:07:43.552Z,76.23
2017-11-30T09:10:10.894Z,78.20
2017-11-30T09:12:37.453Z,73.70
2017-11-30T09:15:04.094Z,72.20
2017-11-30T09:17:30.718Z,82.97
2017-11-30T09:19:57.281Z,77.67
2017-11-30T09:22:23.811Z,72.37
2017-11-30T09:24:50.707Z,76.40
2017-11-30T09:27:17.331Z,85.53
2017-11-30T09:29:43.871Z,81.40
2017-11-30T09:32:10.469Z,72.13
2017-11-30T09:34:37.092Z,76.33
2017-11-30T09:37:04.906Z,69.90
2017-11-30T09:39:31.600Z,71.30
2017-11-30T09:41:58.163Z,61.63
2017-11-30T09:44:24.760Z,64.60
2017-11-30T09:46:51.481Z,71.63
2017-11-30T09:49:18.782Z,70.57
2017-11-30T09:51:46.304Z,70.20
2017-11-30T09:54:13.309Z,68.33
2017-11-30T09:56:39.878Z,64.13
2017-11-30T09:59:07.102Z,77.43
2017-11-30T10:01:33.748Z,68.93
2017-11-30T10:04:00.475Z,64.40
2017-11-30T10:06:27.055Z,70.67
2017-11-30T10:08:53.932Z,75.47
2017-11-30T10:11:20.518Z,64.90
2017-11-30T10:13:47.099Z,67.10
2017-11-30T10:16:13.782Z,72.47
2017-11-30T10:18:40.315Z,74.00
2017-11-30T10:21:06.916Z,86.57
2017-11-30T10:23:33.570Z,76.53
2017-11-30T10:26:00.175Z,71.70
2017-11-30T10:28:26.887Z,76.07
2017-11-30T10:30:53.980Z,67.73
2017-11-30T10:33:20.546Z,92.27
2017-11-30T10:35:47.239Z,87.70
2017-11-30T10:38:13.883Z,76.60
2017-11-30T10:40:40.456Z,78.07
2017-11-30T10:43:07.831Z,76.83
2017-11-30T10:45:35.444Z,71.10
2017-11-30T10:48:02.120Z,62.90
2017-11-30T10:50:29.417Z,74.60
2017-11-30T10:52:57.017Z,67.27
2017-11-30T10:55:23.553Z,65.67
2017-11-30T10:57:50.109Z,60.77
2017-11-30T11:00:17.241Z,63.33
2017-11-30T11:02:44.098Z,59.43
2017-11-30T11:05:10.791Z,70.27
2017-11-30T11:07:37.342Z,67.37
2017-11-30T11:10:04.040Z,60.80
2017-11-30T11:12:30.822Z,57.47
2017-11-30T11:14:57.379Z,60.83
2017-11-30T11:17:24.105Z,57.13
2017-11-30T11:19:50.653Z,53.10
2017-11-30T11:22:17.298Z,53.40
2017-11-30T11:24:43.886Z,55.97
2017-11-30T11:27:10.482Z,52.77
2017-11-30T11:29:37.785Z,63.50
2017-11-30T11:32:04.597Z,58.07
2017-11-30T11:34:31.276Z,49.03
2017-11-30T11:36:58.052Z,45.87
2017-11-30T11:39:24.488Z,52.67
2017-11-30T11:41:51.642Z,55.47
2017-11-30T11:44:18.731Z,55.27
2017-11-30T11:46:45.411Z,50.13
2017-11-30T11:49:12.074Z,49.73
2017-11-30T11:51:38.560Z,45.10
2017-11-30T11:54:05.164Z,49.70
2017-11-30T11:56:32.395Z,57.63
2017-11-30T11:58:59.005Z,57.43
2017-11-30T12:01:25.565Z,52.00
2017-11-30T12:03:52.034Z,53.97
2017-11-30T12:06:19.204Z,44.57
2017-11-30T12:08:45.837Z,48.90
2017-11-30T12:11:12.520Z,56.13
2017-11-30T12:13:40.447Z,62.73
2017-11-30T12:16:07.808Z,65.43
2017-11-30T12:18:35.122Z,59.37
2017-11-30T12:21:01.752Z,60.17
2017-11-30T12:23:28.352Z,68.43
2017-11-30T12:25:55.096Z,64.53
2017-11-30T12:28:21.816Z,58.53
2017-11-30T12:30:48.449Z,65.73
2017-11-30T12:33:15.109Z,53.00
2017-11-30T12:35:42.016Z,64.53
2017-11-30T12:38:08.686Z,60.93
2017-11-30T12:40:35.267Z,51.33
2017-11-30T12:43:01.973Z,54.67
2017-11-30T12:45:28.571Z,57.17
2017-11-30T12:47:55.519Z,60.33
2017-11-30T12:50:22.264Z,65.67
2017-11-30T12:52:48.935Z,63.03
2017-11-30T12:55:15.840Z,59.83
2017-11-30T12:57:42.575Z,61.57
2017-11-30T13:00:09.333Z,72.73
2017-11-30T13:02:36.163Z,63.47
2017-11-30T13:05:03.202Z,62.20
2017-11-30T13:07:29.860Z,63.10
2017-11-30T13:09:56.423Z,67.07
2017-11-30T13:12:23.273Z,60.00
2017-11-30T13:14:50.761Z,55.07
2017-11-30T13:17:17.312Z,62.70
2017-11-30T13:19:44.337Z,61.23
2017-11-30T13:22:10.959Z,52.47
2017-11-30T13:24:37.606Z,59.73
2017-11-30T13:27:04.178Z,61.13
2017-11-30T13:29:30.637Z,62.27
2017-11-30T13:31:57.153Z,54.87
2017-11-30T13:34:23.820Z,57.57
2017-11-30T13:36:50.298Z,54.20
2017-11-30T13:39:17.033Z,52.23
2017-11-30T13:41:49.985Z,53.10
2017-11-30T13:44:16.598Z,63.63
2017-11-30T13:46:43.208Z,58.40
2017-11-30T13:49:10.449Z,58.17
2017-11-30T13:51:37.062Z,52.03
2017-11-30T13:54:04.532Z,60.07
2017-11-30T13:56:32.611Z,58.77
2017-11-30T13:58:59.166Z,54.70
2017-11-30T14:01:25.730Z,63.03
2017-11-30T14:03:52.172Z,55.63
2017-11-30T14:06:18.682Z,52.90
2017-11-30T14:08:45.219Z,51.70
2017-11-30T14:11:12.406Z,65.27
2017-11-30T14:13:38.885Z,64.20
2017-11-30T14:16:05.386Z,69.20
2017-11-30T14:18:31.893Z,63.80
2017-11-30T14:20:58.326Z,68.37
2017-11-30T14:23:25.633Z,57.50
2017-11-30T14:25:53.495Z,62.77
2017-11-30T14:28:20.963Z,66.87
2017-11-30T14:30:48.604Z,75.97
2017-11-30T14:33:15.165Z,69.80
2017-11-30T14:35:42.388Z,67.77
2017-11-30T14:38:21.837Z,65.40
2017-11-30T14:40:48.386Z,68.50
2017-11-30T14:43:14.967Z,80.67
2017-11-30T14:45:41.535Z,71.50
2017-11-30T14:48:08.164Z,67.67
2017-11-30T14:50:36.312Z,67.67
2017-11-30T14:53:02.871Z,85.43
2017-11-30T14:55:29.378Z,71.50
2017-11-30T14:57:55.984Z,83.57
2017-11-30T15:00:22.518Z,81.93
2017-11-30T15:02:49.796Z,78.80
2017-11-30T15:05:16.445Z,76.73
2017-11-30T15:07:45.779Z,76.57
2017-11-30T15:10:12.366Z,76.00
2017-11-30T15:12:39.636Z,72.70
2017-11-30T15:15:07.726Z,71.83
2017-11-30T15:17:35.925Z,69.07
2017-11-30T15:20:02.740Z,80.53
2017-11-30T15:22:30.207Z,70.60
2017-11-30T15:24:56.849Z,74.37
2017-11-30T15:27:23.307Z,80.47
2017-11-30T15:29:49.804Z,91.67
2017-11-30T15:32:16.272Z,80.53
2017-11-30T15:34:43.587Z,88.33
2017-11-30T15:37:10.176Z,68.93
2017-11-30T15:39:36.799Z,77.17
2017-11-30T15:42:03.352Z,80.73
2017-11-30T15:44:31.200Z,76.23
2017-11-30T15:46:57.759Z,87.43
2017-11-30T15:49:24.295Z,90.37
2017-11-30T15:51:51.444Z,76.90
2017-11-30T15:54:18.104Z,82.30
2017-11-30T15:56:44.697Z,79.00
2017-11-30T15:59:12.531Z,76.60
2017-11-30T16:01:39.100Z,82.90
2017-11-30T16:04:05.941Z,73.70
2017-11-30T16:06:32.558Z,89.97
2017-11-30T16:08:59.192Z,77.73
2017-11-30T16:11:25.721Z,83.93
2017-11-30T16:13:52.204Z,68.67
2017-11-30T16:16:19.383Z,85.20
2017-11-30T16:18:45.811Z,88.63
2017-11-30T16:21:12.462Z,99.63
2017-11-30T16:23:39.294Z,86.47
2017-11-30T16:26:05.800Z,101.83
2017-11-30T16:28:32.857Z,87.87
2017-11-30T16:31:00.524Z,88.43
2017-11-30T16:33:27.163Z,89.17
2017-11-30T16:35:55.631Z,85.20
2017-11-30T16:38:23.550Z,83.77
2017-11-30T16:40:50.320Z,91.23
2017-11-30T16:43:17.213Z,87.03
2017-11-30T16:45:44.101Z,89.83
2017-11-30T16:48:10.728Z,91.13
2017-11-30T16:50:38.054Z,86.13
2017-11-30T16:53:04.683Z,90.77
2017-11-30T16:55:31.256Z,96.10
2017-11-30T16:57:58.441Z,83.13
2017-11-30T17:00:27.112Z,101.27
2017-11-30T17:02:53.854Z,99.33
2017-11-30T17:05:20.978Z,112.37
2017-11-30T17:07:47.594Z,107.47
2017-11-30T17:10:14.247Z,121.43
2017-11-30T17:12:41.220Z,104.57
2017-11-30T17:15:08.673Z,110.67
2017-11-30T17:17:36.325Z,110.43
2017-11-30T17:20:02.942Z,99.57
2017-11-30T17:22:30.077Z,118.67
2017-11-30T17:24:56.759Z,110.43
2017-11-30T17:27:24.605Z,121.13
2017-11-30T17:29:51.392Z,135.53
2017-11-30T17:32:18.140Z,136.00
2017-11-30T17:34:44.897Z,128.90
2017-11-30T17:37:11.612Z,122.83
2017-11-30T17:39:38.452Z,136.63
2017-11-30T17:42:05.665Z,131.67
2017-11-30T17:44:32.912Z,120.60
2017-11-30T17:47:00.899Z,116.43
2017-11-30T17:49:28.182Z,118.97
2017-11-30T17:51:55.289Z,125.30
2017-11-30T17:54:22.480Z,116.27
2017-11-30T17:56:49.510Z,140.83
2017-11-30T17:59:17.824Z,101.77
2017-11-30T18:01:46.055Z,117.87
2017-11-30T18:04:13.802Z,104.67
2017-11-30T18:06:40.366Z,108.00
2017-11-30T18:09:07.467Z,141.47
2017-11-30T18:11:35.234Z,113.73
2017-11-30T18:14:03.907Z,117.50
2017-11-30T18:16:32.384Z,112.70
2017-11-30T18:18:59.410Z,110.87
2017-11-30T18:21:27.560Z,115.10
2017-11-30T18:23:55.442Z,114.60
2017-11-30T18:26:23.393Z,112.80
2017-11-30T18:28:50.345Z,112.47
2017-11-30T18:31:16.847Z,115.53
2017-11-30T18:33:45.398Z,129.57
2017-11-30T18:36:13.168Z,116.23
2017-11-30T18:38:39.679Z,118.47
2017-11-30T18:41:07.687Z,116.60
2017-11-30T18:43:34.838Z,97.33
2017-11-30T18:46:03.153Z,107.57
2017-11-30T18:48:30.066Z,109.63
2017-11-30T18:50:56.577Z,93.67
2017-11-30T18:53:23.171Z,104.90
2017-11-30T18:55:49.753Z,105.00
2017-11-30T18:58:16.322Z,108.27
2017-11-30T19:00:43.666Z,124.27
2017-11-30T19:03:11.470Z,117.07
2017-11-30T19:05:38.091Z,125.07
2017-11-30T19:08:05.816Z,112.43
2017-11-30T19:10:32.823Z,121.43
2017-11-30T19:13:00.031Z,137.00
2017-11-30T19:15:26.699Z,122.47
2017-11-30T19:17:53.846Z,108.03
2017-11-30T19:20:20.481Z,120.10
2017-11-30T19:22:46.981Z,113.33
2017-11-30T19:25:13.731Z,107.97
2017-11-30T19:27:40.456Z,112.40
2017-11-30T19:30:07.827Z,117.37
2017-11-30T19:32:34.387Z,111.40
2017-11-30T19:35:00.943Z,129.13
2017-11-30T19:37:27.847Z,118.30
2017-11-30T19:39:54.395Z,116.87
2017-11-30T19:42:20.881Z,113.53
2017-11-30T19:44:48.420Z,119.23
2017-11-30T19:47:15.078Z,127.13
2017-11-30T19:49:42.510Z,118.10
2017-11-30T19:52:09.699Z,115.30
2017-11-30T19:54:36.309Z,127.67
2017-11-30T19:57:02.818Z,110.13
2017-11-30T19:59:29.443Z,117.30
2017-11-30T20:01:56.286Z,112.60
2017-11-30T20:04:22.915Z,125.53
2017-11-30T20:06:49.505Z,101.73
2017-11-30T20:09:16.105Z,111.90
2017-11-30T20:11:42.651Z,114.90
2017-11-30T20:14:11.230Z,107.07
2017-11-30T20:16:38.025Z,106.90
2017-11-30T20:19:04.514Z,103.07
2017-11-30T20:21:31.091Z,106.57
2017-11-30T20:23:57.918Z,106.00
2017-11-30T20:26:24.399Z,110.03
2017-11-30T20:28:50.988Z,111.47
2017-11-30T20:31:17.505Z,125.33
2017-11-30T20:33:44.069Z,108.00
2017-11-30T20:36:10.561Z,109.63
2017-11-30T20:38:37.128Z,118.07
2017-11-30T20:41:03.843Z,99.63
2017-11-30T20:43:30.411Z,96.13
2017-11-30T20:45:58.344Z,103.83
2017-11-30T20:48:24.994Z,102.73
2017-11-30T20:50:51.626Z,110.67
2017-11-30T20:53:18.805Z,111.07
2017-11-30T20:55:45.301Z,96.83
2017-11-30T20:58:12.535Z,90.73
2017-11-30T21:00:39.248Z,95.87
2017-11-30T21:03:05.832Z,82.03
2017-11-30T21:05:33.116Z,83.93
2017-11-30T21:08:00.400Z,80.03
2017-11-30T21:10:26.937Z,62.23
2017-11-30T21:12:53.795Z,60.27
2017-11-30T21:15:20.337Z,65.70
2017-11-30T21:17:47.710Z,65.43
2017-11-30T21:20:14.253Z,71.43
2017-11-30T21:22:40.876Z,62.57
2017-11-30T21:25:08.410Z,67.53
2017-11-30T21:27:35.127Z,83.40
2017-11-30T21:30:01.682Z,91.40
2017-11-30T21:32:28.173Z,90.50
2017-11-30T21:34:56.007Z,101.43
2017-11-30T21:37:22.704Z,103.60
2017-11-30T21:39:49.209Z,83.00
2017-11-30T21:42:15.811Z,92.37
2017-11-30T21:44:42.471Z,94.63
2017-11-30T21:47:08.950Z,95.10
2017-11-30T21:49:35.532Z,91.13
2017-11-30T21:52:03.540Z,95.23
2017-11-30T21:54:30.126Z,88.80
2017-11-30T21:56:56.719Z,74.30
2017-11-30T21:59:23.649Z,72.13
2017-11-30T22:01:50.346Z,73.33
2017-11-30T22:04:16.945Z,66.83
2017-11-30T22:06:44.985Z,68.53
2017-11-30T22:09:11.627Z,69.13
2017-11-30T22:11:49.156Z,58.80
2017-11-30T22:14:16.569Z,56.43
2017-11-30T22:16:44.831Z,53.30
2017-11-30T22:19:12.184Z,56.40
2017-11-30T22:21:38.924Z,49.17
2017-11-30T22:24:05.492Z,54.53
2017-11-30T22:26:33.288Z,53.07
2017-11-30T22:28:59.824Z,46.43
2017-11-30T22:31:27.216Z,48.70
2017-11-30T22:33:54.474Z,54.03
2017-11-30T22:36:21.755Z,58.43
2017-11-30T22:38:48.931Z,52.40
2017-11-30T22:41:15.551Z,46.40
2017-11-30T22:43:42.963Z,39.37
2017-11-30T22:46:10.025Z,46.00
2017-11-30T22:48:36.790Z,38.87
2017-11-30T22:51:03.456Z,53.67
2017-11-30T22:53:30.085Z,43.10
2017-11-30T22:55:56.837Z,40.47
2017-11-30T22:58:23.446Z,37.93
2017-11-30T23:00:49.978Z,36.50
2017-11-30T23:03:16.820Z,29.90
2017-11-30T23:05:43.511Z,28.17
2017-11-30T23:08:10.131Z,38.47
2017-11-30T23:10:37.499Z,41.80
2017-11-30T23:13:04.020Z,39.20
2017-11-30T23:15:30.657Z,33.10
2017-11-30T23:17:58.274Z,30.83
2017-11-30T23:20:24.825Z,29.67
2017-11-30T23:22:51.512Z,42.23
2017-11-30T23:25:21.289Z,30.33
2017-11-30T23:27:47.956Z,45.50
2017-11-30T23:30:14.565Z,29.73
2017-11-30T23:32:41.944Z,34.37
2017-11-30T23:35:08.588Z,35.50
2017-11-30T23:37:35.116Z,35.73
2017-11-30T23:40:02.094Z,35.27
2017-11-30T23:42:29.711Z,34.30
2017-11-30T23:44:56.183Z,33.87
2017-11-30T23:47:22.856Z,25.43
2017-11-30T23:49:49.422Z,30.40
2017-11-30T23:52:15.922Z,16.10
2017-11-30T23:54:42.550Z,16.07
2017-11-30T23:57:09.762Z,14.73
2017-11-30T23:59:36.317Z,11.30
